sensor_id;sensor_type;location;lat;lon;timestamp;temperature;humidity
21495;DHT22;10909;53.590;10.054;2023-04-24T00:00:42;16.90;62.70
21495;DHT22;10909;53.590;10.054;2023-04-24T00:03:10;16.90;63.00
21495;DHT22;10909;53.590;10.054;2023-04-24T00:05:36;16.80;63.30
21495;DHT22;10909;53.590;10.054;2023-04-24T00:08:02;16.80;63.00
21495;DHT22;10909;53.590;10.054;2023-04-24T00:10:28;16.70;63.20
21495;DHT22;10909;53.590;10.054;2023-04-24T00:12:53;16.70;63.20
21495;DHT22;10909;53.590;10.054;2023-04-24T00:15:19;16.70;63.70
21495;DHT22;10909;53.590;10.054;2023-04-24T00:17:49;16.70;63.80
21495;DHT22;10909;53.590;10.054;2023-04-24T00:20:19;16.70;64.10
21495;DHT22;10909;53.590;10.054;2023-04-24T00:22:56;16.60;64.00
21495;DHT22;10909;53.590;10.054;2023-04-24T00:25:24;16.60;63.80
21495;DHT22;10909;53.590;10.054;2023-04-24T00:27:50;16.60;64.00
21495;DHT22;10909;53.590;10.054;2023-04-24T00:30:16;16.60;64.10
21495;DHT22;10909;53.590;10.054;2023-04-24T00:32:41;16.60;64.20
21495;DHT22;10909;53.590;10.054;2023-04-24T00:35:07;16.60;64.30
21495;DHT22;10909;53.590;10.054;2023-04-24T00:37:33;16.60;64.30
21495;DHT22;10909;53.590;10.054;2023-04-24T00:39:59;16.60;64.50
21495;DHT22;10909;53.590;10.054;2023-04-24T00:42:25;16.50;64.50
21495;DHT22;10909;53.590;10.054;2023-04-24T00:44:53;16.60;64.60
21495;DHT22;10909;53.590;10.054;2023-04-24T00:47:25;16.60;64.60
21495;DHT22;10909;53.590;10.054;2023-04-24T00:49:53;16.60;64.40
21495;DHT22;10909;53.590;10.054;2023-04-24T00:52:23;16.60;64.30
21495;DHT22;10909;53.590;10.054;2023-04-24T00:54:49;16.60;64.40
21495;DHT22;10909;53.590;10.054;2023-04-24T00:57:15;16.50;64.30
21495;DHT22;10909;53.590;10.054;2023-04-24T00:59:42;16.50;64.30
21495;DHT22;10909;53.590;10.054;2023-04-24T01:02:09;16.50;64.40
21495;DHT22;10909;53.590;10.054;2023-04-24T01:04:37;16.50;64.40
21495;DHT22;10909;53.590;10.054;2023-04-24T01:07:07;16.50;64.70
21495;DHT22;10909;53.590;10.054;2023-04-24T01:09:40;16.50;65.00
21495;DHT22;10909;53.590;10.054;2023-04-24T01:12:09;16.50;65.00
21495;DHT22;10909;53.590;10.054;2023-04-24T01:14:35;16.40;64.80
21495;DHT22;10909;53.590;10.054;2023-04-24T01:17:02;16.40;64.90
21495;DHT22;10909;53.590;10.054;2023-04-24T01:19:28;16.40;64.90
21495;DHT22;10909;53.590;10.054;2023-04-24T01:21:54;16.30;64.80
21495;DHT22;10909;53.590;10.054;2023-04-24T01:24:23;16.30;65.00
21495;DHT22;10909;53.590;10.054;2023-04-24T01:26:49;16.30;65.20
21495;DHT22;10909;53.590;10.054;2023-04-24T01:29:15;16.30;65.00
21495;DHT22;10909;53.590;10.054;2023-04-24T01:31:40;16.30;65.00
21495;DHT22;10909;53.590;10.054;2023-04-24T01:34:06;16.20;65.00
21495;DHT22;10909;53.590;10.054;2023-04-24T01:36:34;16.20;65.30
21495;DHT22;10909;53.590;10.054;2023-04-24T01:39:02;16.20;65.20
21495;DHT22;10909;53.590;10.054;2023-04-24T01:41:29;16.20;65.50
21495;DHT22;10909;53.590;10.054;2023-04-24T01:43:56;16.10;65.80
21495;DHT22;10909;53.590;10.054;2023-04-24T01:46:22;16.10;65.70
21495;DHT22;10909;53.590;10.054;2023-04-24T01:48:48;16.10;66.00
21495;DHT22;10909;53.590;10.054;2023-04-24T01:51:14;16.10;65.90
21495;DHT22;10909;53.590;10.054;2023-04-24T01:53:40;16.10;65.80
21495;DHT22;10909;53.590;10.054;2023-04-24T01:56:06;16.10;65.60
21495;DHT22;10909;53.590;10.054;2023-04-24T01:58:37;16.10;65.70
21495;DHT22;10909;53.590;10.054;2023-04-24T02:01:22;16.10;65.70
21495;DHT22;10909;53.590;10.054;2023-04-24T02:03:48;16.10;66.00
21495;DHT22;10909;53.590;10.054;2023-04-24T02:06:14;16.10;65.90
21495;DHT22;10909;53.590;10.054;2023-04-24T02:08:40;16.00;66.20
21495;DHT22;10909;53.590;10.054;2023-04-24T02:11:06;16.00;65.40
21495;DHT22;10909;53.590;10.054;2023-04-24T02:13:32;16.00;65.50
21495;DHT22;10909;53.590;10.054;2023-04-24T02:16:01;15.90;65.20
21495;DHT22;10909;53.590;10.054;2023-04-24T02:18:26;15.90;65.30
21495;DHT22;10909;53.590;10.054;2023-04-24T02:20:52;15.90;65.40
21495;DHT22;10909;53.590;10.054;2023-04-24T02:23:18;15.80;65.20
21495;DHT22;10909;53.590;10.054;2023-04-24T02:25:44;15.80;65.10
21495;DHT22;10909;53.590;10.054;2023-04-24T02:28:09;15.70;65.30
21495;DHT22;10909;53.590;10.054;2023-04-24T02:30:35;15.70;65.60
21495;DHT22;10909;53.590;10.054;2023-04-24T02:33:01;15.70;65.60
21495;DHT22;10909;53.590;10.054;2023-04-24T02:35:27;15.70;65.50
21495;DHT22;10909;53.590;10.054;2023-04-24T02:37:52;15.60;65.40
21495;DHT22;10909;53.590;10.054;2023-04-24T02:40:18;15.60;65.50
21495;DHT22;10909;53.590;10.054;2023-04-24T02:42:43;15.60;65.70
21495;DHT22;10909;53.590;10.054;2023-04-24T02:45:12;15.50;65.70
21495;DHT22;10909;53.590;10.054;2023-04-24T02:47:40;15.50;65.70
21495;DHT22;10909;53.590;10.054;2023-04-24T02:50:06;15.50;66.10
21495;DHT22;10909;53.590;10.054;2023-04-24T02:52:32;15.40;65.80
21495;DHT22;10909;53.590;10.054;2023-04-24T02:54:58;15.40;66.10
21495;DHT22;10909;53.590;10.054;2023-04-24T02:57:23;15.30;66.10
21495;DHT22;10909;53.590;10.054;2023-04-24T02:59:49;15.30;66.60
21495;DHT22;10909;53.590;10.054;2023-04-24T03:02:15;15.30;66.30
21495;DHT22;10909;53.590;10.054;2023-04-24T03:04:40;15.30;66.30
21495;DHT22;10909;53.590;10.054;2023-04-24T03:07:08;15.20;66.40
21495;DHT22;10909;53.590;10.054;2023-04-24T03:09:35;15.20;66.50
21495;DHT22;10909;53.590;10.054;2023-04-24T03:12:01;15.20;66.60
21495;DHT22;10909;53.590;10.054;2023-04-24T03:14:26;15.20;66.40
21495;DHT22;10909;53.590;10.054;2023-04-24T03:16:52;15.10;66.40
21495;DHT22;10909;53.590;10.054;2023-04-24T03:19:17;15.10;66.40
21495;DHT22;10909;53.590;10.054;2023-04-24T03:21:44;15.10;66.30
21495;DHT22;10909;53.590;10.054;2023-04-24T03:24:09;15.10;66.30
21495;DHT22;10909;53.590;10.054;2023-04-24T03:26:35;15.10;66.60
21495;DHT22;10909;53.590;10.054;2023-04-24T03:29:01;15.00;66.60
21495;DHT22;10909;53.590;10.054;2023-04-24T03:31:29;15.00;66.60
21495;DHT22;10909;53.590;10.054;2023-04-24T03:33:55;15.00;67.00
21495;DHT22;10909;53.590;10.054;2023-04-24T03:36:21;14.90;66.50
21495;DHT22;10909;53.590;10.054;2023-04-24T03:38:46;14.90;66.30
21495;DHT22;10909;53.590;10.054;2023-04-24T03:41:12;14.90;66.30
21495;DHT22;10909;53.590;10.054;2023-04-24T03:43:38;14.90;66.10
21495;DHT22;10909;53.590;10.054;2023-04-24T03:46:04;14.90;66.10
21495;DHT22;10909;53.590;10.054;2023-04-24T03:48:30;14.80;66.10
21495;DHT22;10909;53.590;10.054;2023-04-24T03:50:57;14.80;66.20
21495;DHT22;10909;53.590;10.054;2023-04-24T03:53:23;14.70;65.90
21495;DHT22;10909;53.590;10.054;2023-04-24T03:55:48;14.70;66.10
21495;DHT22;10909;53.590;10.054;2023-04-24T03:58:14;14.70;66.00
21495;DHT22;10909;53.590;10.054;2023-04-24T04:00:40;14.70;65.90
21495;DHT22;10909;53.590;10.054;2023-04-24T04:03:06;14.70;66.00
21495;DHT22;10909;53.590;10.054;2023-04-24T04:05:32;14.60;65.80
21495;DHT22;10909;53.590;10.054;2023-04-24T04:07:57;14.60;65.80
21495;DHT22;10909;53.590;10.054;2023-04-24T04:10:23;14.60;65.70
21495;DHT22;10909;53.590;10.054;2023-04-24T04:12:49;14.60;65.80
21495;DHT22;10909;53.590;10.054;2023-04-24T04:15:15;14.60;65.70
21495;DHT22;10909;53.590;10.054;2023-04-24T04:17:41;14.60;65.50
21495;DHT22;10909;53.590;10.054;2023-04-24T04:20:07;14.50;65.40
21495;DHT22;10909;53.590;10.054;2023-04-24T04:22:36;14.50;65.40
21495;DHT22;10909;53.590;10.054;2023-04-24T04:25:02;14.50;65.40
21495;DHT22;10909;53.590;10.054;2023-04-24T04:27:30;14.50;65.50
21495;DHT22;10909;53.590;10.054;2023-04-24T04:29:58;14.40;65.20
21495;DHT22;10909;53.590;10.054;2023-04-24T04:32:28;14.40;65.10
21495;DHT22;10909;53.590;10.054;2023-04-24T04:34:53;14.40;65.10
21495;DHT22;10909;53.590;10.054;2023-04-24T04:37:19;14.40;65.00
21495;DHT22;10909;53.590;10.054;2023-04-24T04:39:46;14.40;64.80
21495;DHT22;10909;53.590;10.054;2023-04-24T04:42:11;14.40;64.70
21495;DHT22;10909;53.590;10.054;2023-04-24T04:44:37;14.40;64.60
21495;DHT22;10909;53.590;10.054;2023-04-24T04:47:04;14.40;64.40
21495;DHT22;10909;53.590;10.054;2023-04-24T04:49:31;14.40;64.40
21495;DHT22;10909;53.590;10.054;2023-04-24T04:51:57;14.40;64.40
21495;DHT22;10909;53.590;10.054;2023-04-24T04:54:23;14.40;64.40
21495;DHT22;10909;53.590;10.054;2023-04-24T04:56:56;14.50;64.40
21495;DHT22;10909;53.590;10.054;2023-04-24T04:59:29;14.50;64.40
21495;DHT22;10909;53.590;10.054;2023-04-24T05:02:04;14.50;64.40
21495;DHT22;10909;53.590;10.054;2023-04-24T05:04:32;14.60;64.30
21495;DHT22;10909;53.590;10.054;2023-04-24T05:06:58;14.60;64.20
21495;DHT22;10909;53.590;10.054;2023-04-24T05:09:24;14.70;64.20
21495;DHT22;10909;53.590;10.054;2023-04-24T05:11:52;14.70;64.10
21495;DHT22;10909;53.590;10.054;2023-04-24T05:14:18;14.80;63.80
21495;DHT22;10909;53.590;10.054;2023-04-24T05:16:44;14.80;63.60
21495;DHT22;10909;53.590;10.054;2023-04-24T05:19:10;14.80;63.50
21495;DHT22;10909;53.590;10.054;2023-04-24T05:21:41;14.80;63.30
21495;DHT22;10909;53.590;10.054;2023-04-24T05:24:08;14.80;63.10
21495;DHT22;10909;53.590;10.054;2023-04-24T05:26:36;14.90;63.10
21495;DHT22;10909;53.590;10.054;2023-04-24T05:29:07;14.90;62.90
21495;DHT22;10909;53.590;10.054;2023-04-24T05:31:32;14.90;62.90
21495;DHT22;10909;53.590;10.054;2023-04-24T05:33:58;14.90;62.90
21495;DHT22;10909;53.590;10.054;2023-04-24T05:36:24;14.90;62.80
21495;DHT22;10909;53.590;10.054;2023-04-24T05:38:49;14.90;62.70
21495;DHT22;10909;53.590;10.054;2023-04-24T05:41:16;14.90;62.70
21495;DHT22;10909;53.590;10.054;2023-04-24T05:43:51;14.90;62.70
21495;DHT22;10909;53.590;10.054;2023-04-24T05:46:17;14.90;62.70
21495;DHT22;10909;53.590;10.054;2023-04-24T05:48:42;14.90;62.60
21495;DHT22;10909;53.590;10.054;2023-04-24T05:51:09;14.90;62.60
21495;DHT22;10909;53.590;10.054;2023-04-24T05:53:37;15.00;62.60
21495;DHT22;10909;53.590;10.054;2023-04-24T05:56:02;15.00;62.60
21495;DHT22;10909;53.590;10.054;2023-04-24T05:58:31;15.00;62.40
21495;DHT22;10909;53.590;10.054;2023-04-24T06:00:57;15.00;62.40
21495;DHT22;10909;53.590;10.054;2023-04-24T06:03:24;15.00;62.30
21495;DHT22;10909;53.590;10.054;2023-04-24T06:05:50;15.00;62.20
21495;DHT22;10909;53.590;10.054;2023-04-24T06:08:16;15.10;62.30
21495;DHT22;10909;53.590;10.054;2023-04-24T06:10:42;15.10;62.30
21495;DHT22;10909;53.590;10.054;2023-04-24T06:13:08;15.10;62.20
21495;DHT22;10909;53.590;10.054;2023-04-24T06:15:33;15.10;62.10
21495;DHT22;10909;53.590;10.054;2023-04-24T06:17:59;15.10;61.90
21495;DHT22;10909;53.590;10.054;2023-04-24T06:20:25;15.20;62.00
21495;DHT22;10909;53.590;10.054;2023-04-24T06:22:51;15.20;61.90
21495;DHT22;10909;53.590;10.054;2023-04-24T06:25:16;15.20;61.80
21495;DHT22;10909;53.590;10.054;2023-04-24T06:27:42;15.20;61.80
21495;DHT22;10909;53.590;10.054;2023-04-24T06:30:08;15.20;61.80
21495;DHT22;10909;53.590;10.054;2023-04-24T06:32:34;15.30;61.70
21495;DHT22;10909;53.590;10.054;2023-04-24T06:35:00;15.30;61.60
21495;DHT22;10909;53.590;10.054;2023-04-24T06:37:25;15.30;61.40
21495;DHT22;10909;53.590;10.054;2023-04-24T06:39:51;15.40;61.20
21495;DHT22;10909;53.590;10.054;2023-04-24T06:42:19;15.40;61.20
21495;DHT22;10909;53.590;10.054;2023-04-24T06:44:49;15.50;61.20
21495;DHT22;10909;53.590;10.054;2023-04-24T06:47:17;15.40;60.80
21495;DHT22;10909;53.590;10.054;2023-04-24T06:49:47;15.50;60.50
21495;DHT22;10909;53.590;10.054;2023-04-24T06:52:13;15.50;60.50
21495;DHT22;10909;53.590;10.054;2023-04-24T06:54:41;15.60;60.70
21495;DHT22;10909;53.590;10.054;2023-04-24T06:57:08;15.60;60.80
21495;DHT22;10909;53.590;10.054;2023-04-24T06:59:34;15.70;60.60
21495;DHT22;10909;53.590;10.054;2023-04-24T07:02:02;15.70;60.50
21495;DHT22;10909;53.590;10.054;2023-04-24T07:04:32;15.80;60.10
21495;DHT22;10909;53.590;10.054;2023-04-24T07:06:58;15.80;60.00
21495;DHT22;10909;53.590;10.054;2023-04-24T07:09:25;15.90;59.80
21495;DHT22;10909;53.590;10.054;2023-04-24T07:11:51;15.90;59.80
21495;DHT22;10909;53.590;10.054;2023-04-24T07:14:17;15.90;59.70
21495;DHT22;10909;53.590;10.054;2023-04-24T07:16:43;15.90;59.70
21495;DHT22;10909;53.590;10.054;2023-04-24T07:19:10;15.90;59.40
21495;DHT22;10909;53.590;10.054;2023-04-24T07:21:36;16.00;59.40
21495;DHT22;10909;53.590;10.054;2023-04-24T07:24:01;16.00;59.50
21495;DHT22;10909;53.590;10.054;2023-04-24T07:26:29;16.00;59.20
21495;DHT22;10909;53.590;10.054;2023-04-24T07:28:55;16.00;59.20
21495;DHT22;10909;53.590;10.054;2023-04-24T07:31:21;16.10;59.30
21495;DHT22;10909;53.590;10.054;2023-04-24T07:33:47;16.10;59.30
21495;DHT22;10909;53.590;10.054;2023-04-24T07:36:15;16.10;59.00
21495;DHT22;10909;53.590;10.054;2023-04-24T07:38:45;16.20;59.10
21495;DHT22;10909;53.590;10.054;2023-04-24T07:41:11;16.20;58.90
21495;DHT22;10909;53.590;10.054;2023-04-24T07:43:37;16.20;59.10
21495;DHT22;10909;53.590;10.054;2023-04-24T07:46:03;16.30;59.20
21495;DHT22;10909;53.590;10.054;2023-04-24T07:48:29;16.30;58.80
21495;DHT22;10909;53.590;10.054;2023-04-24T07:50:57;16.40;58.80
21495;DHT22;10909;53.590;10.054;2023-04-24T07:53:30;16.40;58.90
21495;DHT22;10909;53.590;10.054;2023-04-24T07:55:59;16.40;58.60
21495;DHT22;10909;53.590;10.054;2023-04-24T07:58:29;16.40;58.30
21495;DHT22;10909;53.590;10.054;2023-04-24T08:00:55;16.40;58.50
21495;DHT22;10909;53.590;10.054;2023-04-24T08:03:20;16.40;58.40
21495;DHT22;10909;53.590;10.054;2023-04-24T08:05:47;16.50;58.40
21495;DHT22;10909;53.590;10.054;2023-04-24T08:08:13;16.50;58.30
21495;DHT22;10909;53.590;10.054;2023-04-24T08:10:39;16.50;58.20
21495;DHT22;10909;53.590;10.054;2023-04-24T08:13:07;16.50;58.10
21495;DHT22;10909;53.590;10.054;2023-04-24T08:15:33;16.50;58.00
21495;DHT22;10909;53.590;10.054;2023-04-24T08:17:59;16.60;58.10
21495;DHT22;10909;53.590;10.054;2023-04-24T08:20:25;16.50;58.10
21495;DHT22;10909;53.590;10.054;2023-04-24T08:22:50;16.60;57.80
21495;DHT22;10909;53.590;10.054;2023-04-24T08:25:16;16.60;57.90
21495;DHT22;10909;53.590;10.054;2023-04-24T08:27:44;16.60;57.90
21495;DHT22;10909;53.590;10.054;2023-04-24T08:30:10;16.60;58.00
21495;DHT22;10909;53.590;10.054;2023-04-24T08:32:36;16.60;57.70
21495;DHT22;10909;53.590;10.054;2023-04-24T08:35:05;16.70;57.50
21495;DHT22;10909;53.590;10.054;2023-04-24T08:37:35;16.70;57.30
21495;DHT22;10909;53.590;10.054;2023-04-24T08:40:11;16.70;57.50
21495;DHT22;10909;53.590;10.054;2023-04-24T08:42:39;16.70;57.40
21495;DHT22;10909;53.590;10.054;2023-04-24T08:45:05;16.80;57.10
21495;DHT22;10909;53.590;10.054;2023-04-24T08:47:33;16.80;57.40
21495;DHT22;10909;53.590;10.054;2023-04-24T08:49:59;16.80;56.90
21495;DHT22;10909;53.590;10.054;2023-04-24T08:52:28;16.80;57.00
21495;DHT22;10909;53.590;10.054;2023-04-24T08:54:54;16.90;57.30
21495;DHT22;10909;53.590;10.054;2023-04-24T08:57:20;16.90;57.20
21495;DHT22;10909;53.590;10.054;2023-04-24T08:59:46;16.90;57.10
21495;DHT22;10909;53.590;10.054;2023-04-24T09:02:15;16.90;56.80
21495;DHT22;10909;53.590;10.054;2023-04-24T09:04:44;16.90;56.60
21495;DHT22;10909;53.590;10.054;2023-04-24T09:07:16;16.90;56.70
21495;DHT22;10909;53.590;10.054;2023-04-24T09:09:43;16.90;56.80
21495;DHT22;10909;53.590;10.054;2023-04-24T09:12:10;16.90;56.60
21495;DHT22;10909;53.590;10.054;2023-04-24T09:14:36;16.90;56.80
21495;DHT22;10909;53.590;10.054;2023-04-24T09:17:06;17.00;56.90
21495;DHT22;10909;53.590;10.054;2023-04-24T09:19:31;17.00;56.80
21495;DHT22;10909;53.590;10.054;2023-04-24T09:21:57;17.10;56.90
21495;DHT22;10909;53.590;10.054;2023-04-24T09:24:23;17.10;56.90
21495;DHT22;10909;53.590;10.054;2023-04-24T09:26:55;17.20;56.80
21495;DHT22;10909;53.590;10.054;2023-04-24T09:29:23;17.20;56.40
21495;DHT22;10909;53.590;10.054;2023-04-24T09:31:48;17.30;56.30
21495;DHT22;10909;53.590;10.054;2023-04-24T09:34:24;17.30;56.10
21495;DHT22;10909;53.590;10.054;2023-04-24T09:36:50;17.20;55.80
21495;DHT22;10909;53.590;10.054;2023-04-24T09:39:17;17.30;56.20
21495;DHT22;10909;53.590;10.054;2023-04-24T09:41:53;17.20;56.00
21495;DHT22;10909;53.590;10.054;2023-04-24T09:44:20;17.30;56.10
21495;DHT22;10909;53.590;10.054;2023-04-24T09:46:57;17.30;56.10
21495;DHT22;10909;53.590;10.054;2023-04-24T09:49:28;17.30;56.10
21495;DHT22;10909;53.590;10.054;2023-04-24T09:52:04;17.30;56.00
21495;DHT22;10909;53.590;10.054;2023-04-24T09:54:30;17.30;55.80
21495;DHT22;10909;53.590;10.054;2023-04-24T09:56:57;17.30;55.70
21495;DHT22;10909;53.590;10.054;2023-04-24T09:59:22;17.30;55.80
21495;DHT22;10909;53.590;10.054;2023-04-24T10:01:49;17.30;56.00
21495;DHT22;10909;53.590;10.054;2023-04-24T10:04:26;17.20;55.60
21495;DHT22;10909;53.590;10.054;2023-04-24T10:06:53;17.20;55.80
21495;DHT22;10909;53.590;10.054;2023-04-24T10:09:21;17.20;55.80
21495;DHT22;10909;53.590;10.054;2023-04-24T10:11:49;17.20;55.80
21495;DHT22;10909;53.590;10.054;2023-04-24T10:14:20;17.20;55.80
21495;DHT22;10909;53.590;10.054;2023-04-24T10:16:47;17.20;55.80
21495;DHT22;10909;53.590;10.054;2023-04-24T10:19:14;17.20;55.80
21495;DHT22;10909;53.590;10.054;2023-04-24T10:21:43;17.10;55.80
21495;DHT22;10909;53.590;10.054;2023-04-24T10:24:18;17.10;55.70
21495;DHT22;10909;53.590;10.054;2023-04-24T10:26:48;17.10;55.80
21495;DHT22;10909;53.590;10.054;2023-04-24T10:29:17;17.10;55.90
21495;DHT22;10909;53.590;10.054;2023-04-24T10:31:43;17.10;56.10
21495;DHT22;10909;53.590;10.054;2023-04-24T10:34:11;17.10;56.00
21495;DHT22;10909;53.590;10.054;2023-04-24T10:36:43;17.10;55.60
21495;DHT22;10909;53.590;10.054;2023-04-24T10:39:13;17.10;55.70
21495;DHT22;10909;53.590;10.054;2023-04-24T10:41:40;17.10;56.20
21495;DHT22;10909;53.590;10.054;2023-04-24T10:44:15;17.10;55.60
21495;DHT22;10909;53.590;10.054;2023-04-24T10:46:46;17.10;55.90
21495;DHT22;10909;53.590;10.054;2023-04-24T10:49:15;17.10;55.80
21495;DHT22;10909;53.590;10.054;2023-04-24T10:51:53;17.00;55.80
21495;DHT22;10909;53.590;10.054;2023-04-24T10:54:36;17.00;55.80
21495;DHT22;10909;53.590;10.054;2023-04-24T10:57:28;17.00;55.70
21495;DHT22;10909;53.590;10.054;2023-04-24T11:00:15;16.90;55.70
21495;DHT22;10909;53.590;10.054;2023-04-24T11:02:41;16.90;55.90
21495;DHT22;10909;53.590;10.054;2023-04-24T11:05:16;16.90;55.90
21495;DHT22;10909;53.590;10.054;2023-04-24T11:08:15;16.90;56.00
21495;DHT22;10909;53.590;10.054;2023-04-24T11:10:45;17.00;55.80
21495;DHT22;10909;53.590;10.054;2023-04-24T11:13:14;17.00;56.30
21495;DHT22;10909;53.590;10.054;2023-04-24T11:15:41;17.10;56.40
21495;DHT22;10909;53.590;10.054;2023-04-24T11:18:13;17.20;56.10
21495;DHT22;10909;53.590;10.054;2023-04-24T11:20:42;17.30;55.50
21495;DHT22;10909;53.590;10.054;2023-04-24T11:23:08;17.40;55.50
21495;DHT22;10909;53.590;10.054;2023-04-24T11:25:35;17.50;55.40
21495;DHT22;10909;53.590;10.054;2023-04-24T11:28:08;17.50;55.10
21495;DHT22;10909;53.590;10.054;2023-04-24T11:30:44;17.60;54.90
21495;DHT22;10909;53.590;10.054;2023-04-24T11:33:10;17.70;55.00
21495;DHT22;10909;53.590;10.054;2023-04-24T11:35:40;17.70;54.90
21495;DHT22;10909;53.590;10.054;2023-04-24T11:38:07;17.80;54.60
21495;DHT22;10909;53.590;10.054;2023-04-24T11:40:37;17.80;54.60
21495;DHT22;10909;53.590;10.054;2023-04-24T11:43:04;17.80;54.30
21495;DHT22;10909;53.590;10.054;2023-04-24T11:45:31;17.80;54.40
21495;DHT22;10909;53.590;10.054;2023-04-24T11:47:57;17.90;54.40
21495;DHT22;10909;53.590;10.054;2023-04-24T11:50:27;17.90;54.40
21495;DHT22;10909;53.590;10.054;2023-04-24T11:52:56;18.00;54.60
21495;DHT22;10909;53.590;10.054;2023-04-24T11:55:22;18.10;54.40
21495;DHT22;10909;53.590;10.054;2023-04-24T11:57:50;18.10;54.20
21495;DHT22;10909;53.590;10.054;2023-04-24T12:00:23;18.20;53.50
21495;DHT22;10909;53.590;10.054;2023-04-24T12:03:06;18.20;53.20
21495;DHT22;10909;53.590;10.054;2023-04-24T12:05:32;18.20;52.80
21495;DHT22;10909;53.590;10.054;2023-04-24T12:07:59;18.10;52.20
21495;DHT22;10909;53.590;10.054;2023-04-24T12:10:26;18.10;52.20
21495;DHT22;10909;53.590;10.054;2023-04-24T12:12:53;18.10;52.40
21495;DHT22;10909;53.590;10.054;2023-04-24T12:15:22;18.00;52.50
21495;DHT22;10909;53.590;10.054;2023-04-24T12:17:50;18.10;52.20
21495;DHT22;10909;53.590;10.054;2023-04-24T12:20:16;18.10;52.40
21495;DHT22;10909;53.590;10.054;2023-04-24T12:22:52;18.10;52.40
21495;DHT22;10909;53.590;10.054;2023-04-24T12:25:20;18.00;51.50
21495;DHT22;10909;53.590;10.054;2023-04-24T12:27:52;18.00;51.80
21495;DHT22;10909;53.590;10.054;2023-04-24T12:30:18;17.90;51.90
21495;DHT22;10909;53.590;10.054;2023-04-24T12:32:48;17.80;51.80
21495;DHT22;10909;53.590;10.054;2023-04-24T12:35:19;17.80;51.70
21495;DHT22;10909;53.590;10.054;2023-04-24T12:37:46;17.80;51.90
21495;DHT22;10909;53.590;10.054;2023-04-24T12:40:14;17.80;52.10
21495;DHT22;10909;53.590;10.054;2023-04-24T12:42:45;17.70;52.30
21495;DHT22;10909;53.590;10.054;2023-04-24T12:45:16;17.80;51.90
21495;DHT22;10909;53.590;10.054;2023-04-24T12:47:44;17.70;52.20
21495;DHT22;10909;53.590;10.054;2023-04-24T12:50:12;17.80;52.30
21495;DHT22;10909;53.590;10.054;2023-04-24T12:52:39;17.80;52.10
21495;DHT22;10909;53.590;10.054;2023-04-24T12:55:06;17.70;52.30
21495;DHT22;10909;53.590;10.054;2023-04-24T12:57:34;17.70;52.50
21495;DHT22;10909;53.590;10.054;2023-04-24T13:00:00;17.70;52.50
21495;DHT22;10909;53.590;10.054;2023-04-24T13:02:28;17.70;52.40
21495;DHT22;10909;53.590;10.054;2023-04-24T13:04:58;17.60;52.20
21495;DHT22;10909;53.590;10.054;2023-04-24T13:07:23;17.50;52.40
21495;DHT22;10909;53.590;10.054;2023-04-24T13:09:51;17.40;52.40
21495;DHT22;10909;53.590;10.054;2023-04-24T13:12:17;17.40;52.60
21495;DHT22;10909;53.590;10.054;2023-04-24T13:14:45;17.30;52.70
21495;DHT22;10909;53.590;10.054;2023-04-24T13:17:14;17.20;52.90
21495;DHT22;10909;53.590;10.054;2023-04-24T13:19:42;17.00;53.20
21495;DHT22;10909;53.590;10.054;2023-04-24T13:22:13;16.90;53.30
21495;DHT22;10909;53.590;10.054;2023-04-24T13:24:39;16.80;53.50
21495;DHT22;10909;53.590;10.054;2023-04-24T13:27:08;16.70;53.80
21495;DHT22;10909;53.590;10.054;2023-04-24T13:29:37;16.60;54.20
21495;DHT22;10909;53.590;10.054;2023-04-24T13:32:07;16.50;54.40
21495;DHT22;10909;53.590;10.054;2023-04-24T13:34:33;16.40;54.60
21495;DHT22;10909;53.590;10.054;2023-04-24T13:37:01;16.40;54.70
21495;DHT22;10909;53.590;10.054;2023-04-24T13:39:29;16.20;54.80
21495;DHT22;10909;53.590;10.054;2023-04-24T13:41:55;16.10;55.20
21495;DHT22;10909;53.590;10.054;2023-04-24T13:44:21;16.10;55.40
21495;DHT22;10909;53.590;10.054;2023-04-24T13:46:49;15.90;55.40
21495;DHT22;10909;53.590;10.054;2023-04-24T13:49:15;15.90;55.60
21495;DHT22;10909;53.590;10.054;2023-04-24T13:51:42;15.80;55.80
21495;DHT22;10909;53.590;10.054;2023-04-24T13:54:09;15.80;56.10
21495;DHT22;10909;53.590;10.054;2023-04-24T13:56:35;15.80;56.60
21495;DHT22;10909;53.590;10.054;2023-04-24T13:59:02;15.80;56.40
21495;DHT22;10909;53.590;10.054;2023-04-24T14:01:27;15.80;56.20
21495;DHT22;10909;53.590;10.054;2023-04-24T14:03:57;15.80;56.10
21495;DHT22;10909;53.590;10.054;2023-04-24T14:06:23;15.80;56.20
21495;DHT22;10909;53.590;10.054;2023-04-24T14:08:50;15.80;56.30
21495;DHT22;10909;53.590;10.054;2023-04-24T14:11:16;16.00;56.40
21495;DHT22;10909;53.590;10.054;2023-04-24T14:13:42;15.90;56.50
21495;DHT22;10909;53.590;10.054;2023-04-24T14:16:09;15.90;56.60
21495;DHT22;10909;53.590;10.054;2023-04-24T14:18:45;16.00;56.80
21495;DHT22;10909;53.590;10.054;2023-04-24T14:21:13;16.00;56.80
21495;DHT22;10909;53.590;10.054;2023-04-24T14:23:41;16.10;56.60
21495;DHT22;10909;53.590;10.054;2023-04-24T14:26:07;16.10;56.60
21495;DHT22;10909;53.590;10.054;2023-04-24T14:28:33;16.10;56.60
21495;DHT22;10909;53.590;10.054;2023-04-24T14:31:05;16.20;56.60
21495;DHT22;10909;53.590;10.054;2023-04-24T14:33:35;16.20;56.50
21495;DHT22;10909;53.590;10.054;2023-04-24T14:36:02;16.20;56.30
21495;DHT22;10909;53.590;10.054;2023-04-24T14:38:30;16.20;56.10
21495;DHT22;10909;53.590;10.054;2023-04-24T14:40:58;16.20;56.10
21495;DHT22;10909;53.590;10.054;2023-04-24T14:43:24;16.20;56.00
21495;DHT22;10909;53.590;10.054;2023-04-24T14:45:50;16.20;56.00
21495;DHT22;10909;53.590;10.054;2023-04-24T14:48:16;16.20;56.00
21495;DHT22;10909;53.590;10.054;2023-04-24T14:50:43;16.10;56.60
21495;DHT22;10909;53.590;10.054;2023-04-24T14:53:09;16.10;56.20
21495;DHT22;10909;53.590;10.054;2023-04-24T14:55:34;16.00;56.80
21495;DHT22;10909;53.590;10.054;2023-04-24T14:58:02;15.70;57.80
21495;DHT22;10909;53.590;10.054;2023-04-24T15:00:28;15.60;58.20
21495;DHT22;10909;53.590;10.054;2023-04-24T15:02:53;15.40;58.30
21495;DHT22;10909;53.590;10.054;2023-04-24T15:05:20;15.20;58.70
21495;DHT22;10909;53.590;10.054;2023-04-24T15:07:46;15.00;59.40
21495;DHT22;10909;53.590;10.054;2023-04-24T15:10:11;14.90;59.50
21495;DHT22;10909;53.590;10.054;2023-04-24T15:12:37;14.70;60.00
21495;DHT22;10909;53.590;10.054;2023-04-24T15:15:03;14.60;60.90
21495;DHT22;10909;53.590;10.054;2023-04-24T15:17:29;14.50;61.70